Time;durP1;ratioP1;P1;durP2;ratioP2;P2;SDS_P1;SDS_P2;PMS_P1;PMS_P2;Temp;Humidity;BMP_temperature;BMP_pressure;BME280_temperature;BME280_humidity;BME280_pressure;Samples;Min_cycle;Max_cycle;Signal;HPM_P1;HPM_P2
2021/08/04 00:02:32;;;;;;;2.30;1.92;;;;;;;14.38;82.75;99788.84;10501044;28;20123;-78
2021/08/04 00:07:34;;;;;;;4.30;2.00;;;;;;;14.26;84.24;99790.34;10483100;28;20049;-77
2021/08/04 00:12:36;;;;;;;2.97;2.03;;;;;;;14.42;82.78;99784.28;10502508;28;20048;-77
2021/08/04 00:17:39;;;;;;;4.13;2.50;;;;;;;14.23;83.70;99781.72;10503318;28;20044;-77
2021/08/04 00:22:41;;;;;;;2.22;1.92;;;;;;;14.36;83.40;99785.44;10501628;28;20197;-77
2021/08/04 00:27:43;;;;;;;2.97;1.80;;;;;;;14.51;82.37;99782.03;10501981;28;20151;-77
2021/08/04 00:32:45;;;;;;;3.45;1.70;;;;;;;14.45;81.75;99786.78;10480795;28;20049;-77
2021/08/04 00:37:47;;;;;;;1.90;1.40;;;;;;;14.66;80.24;99788.34;10483249;28;20127;-77
2021/08/04 00:42:49;;;;;;;2.95;1.60;;;;;;;14.74;79.56;99785.25;10481520;28;20051;-77
2021/08/04 00:47:51;;;;;;;3.33;1.65;;;;;;;14.54;81.83;99794.25;10481994;28;20485;-76
2021/08/04 00:52:53;;;;;;;2.97;1.80;;;;;;;14.35;82.57;99784.59;10479936;28;20044;-77
2021/08/04 00:57:55;;;;;;;3.72;1.98;;;;;;;14.54;81.38;99786.31;10500040;28;20051;-78
2021/08/04 01:03:01;;;;;;;1.80;1.63;;;;;;;14.52;81.49;99786.41;10482896;28;20044;-76
2021/08/04 01:08:12;;;;;;;2.38;1.50;;;;;;;14.60;80.54;99793.94;10478620;28;20048;-77
2021/08/04 01:13:21;;;;;;;1.42;1.33;;;;;;;14.63;80.05;99796.41;10480709;28;20044;-78
2021/08/04 01:18:26;;;;;;;2.60;1.23;;;;;;;14.73;79.48;99815.31;10481825;28;20411;-76
2021/08/04 01:23:44;;;;;;;3.85;1.08;;;;;;;14.70;79.55;99812.81;10502135;28;20048;-77
2021/08/04 01:28:48;;;;;;;1.70;1.40;;;;;;;14.58;80.19;99806.38;10499697;28;20071;-78
2021/08/04 01:33:51;;;;;;;4.00;1.30;;;;;;;14.62;79.13;99811.44;10496779;28;20340;-77
2021/08/04 01:38:58;;;;;;;1.75;1.20;;;;;;;14.41;81.41;99790.50;10477337;28;20111;-77
2021/08/04 01:44:01;;;;;;;6.43;1.30;;;;;;;14.29;81.57;99800.75;10476797;28;20052;-76
2021/08/04 01:49:04;;;;;;;2.03;1.33;;;;;;;14.53;80.17;99797.84;10475436;28;20048;-77
2021/08/04 01:54:06;;;;;;;3.47;1.20;;;;;;;14.17;82.22;99796.13;10492858;28;20036;-77
2021/08/04 01:59:09;;;;;;;4.28;1.17;;;;;;;14.24;81.63;99792.22;10457504;28;20045;-77
2021/08/04 02:04:10;;;;;;;4.43;1.38;;;;;;;14.24;81.32;99786.91;10477049;28;20447;-76
2021/08/04 02:09:31;;;;;;;4.28;1.83;;;;;;;14.46;79.99;99781.38;10459974;28;20075;-77
2021/08/04 02:15:11;;;;;;;3.88;1.17;;;;;;;14.26;81.03;99779.78;10457948;28;20441;-76
2021/08/04 02:20:29;;;;;;;3.03;1.50;;;;;;;14.16;81.12;99775.88;10389025;28;20127;-77
2021/08/04 02:25:47;;;;;;;1.10;1.00;;;;;;;14.20;80.75;99773.94;10389945;28;20148;-76
2021/08/04 02:30:51;;;;;;;1.67;1.20;;;;;;;14.25;80.38;99762.19;10389487;28;20164;-76
2021/08/04 02:35:53;;;;;;;1.38;1.27;;;;;;;14.29;80.34;99757.59;10406063;28;20108;-76
2021/08/04 02:40:55;;;;;;;2.92;1.23;;;;;;;14.21;81.92;99767.72;10388889;28;20448;-75
2021/08/04 02:45:58;;;;;;;1.35;1.05;;;;;;;14.12;82.33;99767.28;10387729;28;20081;-75
2021/08/04 02:51:12;;;;;;;3.50;1.40;;;;;;;14.27;81.90;99768.28;10417227;28;20064;-76
2021/08/04 02:56:13;;;;;;;2.42;1.40;;;;;;;14.15;83.11;99768.88;10508234;22;20037;-70
2021/08/04 03:01:15;;;;;;;3.25;1.38;;;;;;;14.23;83.02;99766.72;10496854;28;20116;-69
2021/08/04 03:06:17;;;;;;;4.05;1.55;;;;;;;14.34;82.49;99782.91;10496957;28;20044;-70
2021/08/04 03:11:19;;;;;;;2.05;1.25;;;;;;;14.44;81.92;99770.06;10478827;28;20116;-70
2021/08/04 03:16:21;;;;;;;1.77;1.30;;;;;;;14.32;83.46;99768.03;10477910;28;20378;-69
2021/08/04 03:21:23;;;;;;;1.30;1.20;;;;;;;14.52;82.63;99767.00;10495779;28;20052;-69
2021/08/04 03:26:24;;;;;;;3.55;1.50;;;;;;;14.22;84.82;99765.00;10461549;28;20108;-70
2021/08/04 03:31:26;;;;;;;2.70;1.48;;;;;;;14.16;85.72;99759.16;10495341;28;20123;-70
2021/08/04 03:36:28;;;;;;;3.30;1.50;;;;;;;14.05;86.42;99759.72;10495189;28;20102;-70
2021/08/04 03:41:30;;;;;;;2.63;1.67;;;;;;;14.11;86.70;99762.03;10494893;28;20068;-70
2021/08/04 03:46:32;;;;;;;2.53;1.33;;;;;;;14.20;86.31;99769.50;10495008;28;20048;-70
2021/08/04 03:51:34;;;;;;;2.40;1.50;;;;;;;14.39;85.33;99764.16;10477062;28;20120;-70
2021/08/04 03:56:35;;;;;;;2.60;1.40;;;;;;;14.39;85.45;99764.16;10495032;28;20071;-70
2021/08/04 04:01:37;;;;;;;1.98;1.60;;;;;;;14.43;85.67;99763.03;10494747;28;20080;-71
2021/08/04 04:06:39;;;;;;;2.47;1.65;;;;;;;14.58;85.12;99764.06;10494272;28;20076;-71
2021/08/04 04:11:41;;;;;;;3.42;1.83;;;;;;;14.33;86.74;99761.81;10476174;28;20138;-71
2021/08/04 04:16:42;;;;;;;2.85;1.70;;;;;;;14.34;87.23;99768.78;10494853;28;20501;-72
2021/08/04 04:21:44;;;;;;;6.57;2.10;;;;;;;14.36;86.96;99767.78;10475831;28;20040;-72
2021/08/04 04:26:46;;;;;;;2.38;1.52;;;;;;;14.55;86.45;99773.00;10494026;28;20049;-72
2021/08/04 04:31:47;;;;;;;2.03;1.83;;;;;;;14.80;84.46;99784.97;10494029;28;20055;-70
2021/08/04 04:36:49;;;;;;;4.03;1.67;;;;;;;14.80;84.66;99782.31;10493526;28;20511;-71
2021/08/04 04:41:50;;;;;;;3.13;2.15;;;;;;;14.65;85.87;99783.94;10493457;28;20044;-71
2021/08/04 04:46:52;;;;;;;1.73;1.63;;;;;;;14.75;85.30;99797.56;10493496;28;20044;-71
2021/08/04 04:51:54;;;;;;;2.63;1.48;;;;;;;14.96;84.71;99801.72;10476279;28;20128;-71
2021/08/04 04:56:55;;;;;;;2.67;1.40;;;;;;;15.05;83.81;99803.00;10493111;28;20118;-71
2021/08/04 05:01:57;;;;;;;2.28;1.40;;;;;;;15.11;83.72;99800.91;10475347;28;20056;-70
2021/08/04 05:06:59;;;;;;;1.70;1.60;;;;;;;15.10;83.33;99809.78;10476044;28;20489;-71
2021/08/04 05:12:01;;;;;;;3.67;1.75;;;;;;;15.09;84.14;99818.63;10492995;28;20053;-71
2021/08/04 05:17:02;;;;;;;2.38;1.50;;;;;;;15.17;83.77;99818.25;10492282;28;20128;-71
2021/08/04 05:22:04;;;;;;;3.17;1.75;;;;;;;15.60;80.87;99818.53;10492915;28;20044;-71
2021/08/04 05:27:06;;;;;;;2.05;1.75;;;;;;;15.49;82.02;99815.63;10493460;28;20052;-70
2021/08/04 05:32:07;;;;;;;3.75;1.90;;;;;;;15.82;79.23;99815.56;10476104;28;20052;-71
2021/08/04 05:37:09;;;;;;;2.67;2.47;;;;;;;15.76;80.73;99815.91;10493656;28;20049;-72
2021/08/04 05:42:11;;;;;;;4.13;2.67;;;;;;;15.79;81.21;99818.38;10492598;28;20151;-71
2021/08/04 05:47:13;;;;;;;22.77;4.07;;;;;;;15.78;80.13;99822.81;10473499;28;20072;-70
2021/08/04 05:52:15;;;;;;;8.20;2.83;;;;;;;16.47;77.40;99823.25;10491237;28;20041;-72
2021/08/04 05:57:17;;;;;;;2.63;2.28;;;;;;;16.42;78.21;99828.84;10491178;28;20408;-72
2021/08/04 06:02:18;;;;;;;6.45;3.08;;;;;;;16.55;77.13;99829.81;10491598;28;20098;-71
2021/08/04 06:07:20;;;;;;;7.07;3.25;;;;;;;16.35;76.10;99833.66;10472994;28;20040;-71
2021/08/04 06:12:22;;;;;;;4.95;2.60;;;;;;;16.76;76.34;99837.50;10491170;28;20059;-71
2021/08/04 06:17:24;;;;;;;4.53;3.10;;;;;;;17.01;75.74;99832.41;10490461;28;20193;-71
2021/08/04 06:22:25;;;;;;;4.93;2.63;;;;;;;16.74;75.83;99834.09;10490693;28;20114;-71
2021/08/04 06:27:27;;;;;;;2.75;2.25;;;;;;;16.75;76.13;99836.63;10490715;28;20157;-71
2021/08/04 06:32:29;;;;;;;3.55;2.40;;;;;;;17.05;75.87;99841.03;10496952;28;20417;-71
2021/08/04 06:37:30;;;;;;;4.60;2.67;;;;;;;17.19;73.47;99846.34;10481071;28;20051;-71
2021/08/04 06:42:32;;;;;;;4.15;2.40;;;;;;;17.45;72.26;99850.03;10498626;28;20044;-72
2021/08/04 06:47:34;;;;;;;3.63;2.75;;;;;;;17.05;73.83;99843.69;10480914;28;20045;-71
2021/08/04 06:52:36;;;;;;;3.45;2.20;;;;;;;17.21;74.34;99843.56;10499414;28;20181;-71
2021/08/04 06:57:37;;;;;;;3.85;2.00;;;;;;;17.40;74.32;99839.69;10498322;28;20542;-71
2021/08/04 07:02:39;;;;;;;2.70;2.45;;;;;;;18.00;73.15;99849.16;10498278;28;20044;-71
2021/08/04 07:07:42;;;;;;;2.80;1.75;;;;;;;18.22;70.86;99845.09;10479643;28;20048;-70
2021/08/04 07:12:44;;;;;;;3.03;2.20;;;;;;;18.70;68.94;99842.78;10479082;28;20067;-71
2021/08/04 07:17:49;;;;;;;3.15;2.47;;;;;;;18.44;70.83;99847.19;10497663;28;20088;-70
2021/08/04 07:22:50;;;;;;;4.28;2.60;;;;;;;18.39;70.80;99844.81;10496832;28;20045;-70
2021/08/04 07:27:52;;;;;;;3.08;2.60;;;;;;;18.33;70.58;99856.75;10496642;28;20048;-70
2021/08/04 07:32:54;;;;;;;2.25;2.00;;;;;;;18.43;70.83;99856.97;10496249;28;20136;-70
2021/08/04 07:37:55;;;;;;;2.55;1.40;;;;;;;18.61;68.19;99854.88;10478410;28;20104;-70
2021/08/04 07:42:57;;;;;;;1.35;1.25;;;;;;;18.72;67.76;99851.50;10477054;28;20083;-70
2021/08/04 07:47:59;;;;;;;1.73;1.40;;;;;;;18.75;66.91;99864.63;10478195;28;20052;-72
2021/08/04 07:53:00;;;;;;;1.48;1.30;;;;;;;18.60;68.86;99862.00;10477580;28;20041;-69
2021/08/04 07:58:02;;;;;;;2.47;1.48;;;;;;;18.73;67.53;99861.22;10495022;28;20041;-69
2021/08/04 08:03:03;;;;;;;2.03;1.40;;;;;;;18.89;65.23;99857.38;10495229;28;20043;-70
2021/08/04 08:08:06;;;;;;;1.20;1.05;;;;;;;18.60;68.07;99856.69;10495084;28;20218;-70
2021/08/04 08:13:08;;;;;;;1.77;1.27;;;;;;;18.66;67.85;99858.91;10494199;28;20469;-70
2021/08/04 08:18:11;;;;;;;1.42;1.33;;;;;;;18.82;67.07;99861.44;10493716;28;20086;-70
2021/08/04 08:23:13;;;;;;;1.48;1.20;;;;;;;19.08;65.50;99861.41;10475483;28;20049;-70
2021/08/04 08:28:16;;;;;;;1.55;1.15;;;;;;;19.20;66.62;99855.25;10459429;28;20060;-69
2021/08/04 08:33:17;;;;;;;2.33;1.50;;;;;;;19.29;64.38;99859.91;10493361;28;20477;-69
2021/08/04 08:38:19;;;;;;;1.23;1.13;;;;;;;19.07;66.65;99849.91;10475381;28;20121;-69
2021/08/04 08:43:20;;;;;;;1.45;1.10;;;;;;;19.25;65.28;99844.25;10493055;28;20041;-70
2021/08/04 08:48:22;;;;;;;1.98;1.73;;;;;;;19.49;64.79;99847.00;10492847;28;20055;-69
2021/08/04 08:53:24;;;;;;;1.35;1.17;;;;;;;19.85;63.69;99836.38;10492124;28;20084;-70
2021/08/04 08:58:25;;;;;;;1.73;0.93;;;;;;;20.10;61.10;99827.41;10492930;28;20059;-71
2021/08/04 09:03:27;;;;;;;2.00;0.98;;;;;;;20.09;62.05;99828.34;10491953;28;20504;-70
2021/08/04 09:08:30;;;;;;;1.85;0.90;;;;;;;20.55;60.53;99827.59;10492599;28;20116;-70
2021/08/04 09:13:33;;;;;;;1.25;1.08;;;;;;;20.71;61.70;99821.06;10491944;28;20382;-69
2021/08/04 09:18:47;;;;;;;1.75;1.20;;;;;;;20.30;60.98;99817.03;10491902;28;20041;-70
2021/08/04 09:23:53;;;;;;;2.15;1.20;;;;;;;20.48;61.01;99813.00;10491895;28;20056;-70
2021/08/04 09:28:59;;;;;;;1.10;1.00;;;;;;;20.46;61.71;99817.59;10479858;28;20108;-70
2021/08/04 09:34:01;;;;;;;1.25;1.02;;;;;;;19.89;64.09;99829.00;10460295;28;20075;-70
2021/08/04 09:39:06;;;;;;;1.90;1.27;;;;;;;19.80;67.74;99835.84;10459909;28;20044;-72
2021/08/04 09:44:08;;;;;;;2.33;1.77;;;;;;;19.20;71.45;99846.41;10482593;28;20427;-70
2021/08/04 09:49:14;;;;;;;2.30;1.60;;;;;;;18.63;74.43;99837.81;10459426;28;20070;-70
2021/08/04 09:54:16;;;;;;;4.80;2.60;;;;;;;18.51;76.38;99837.84;10491455;28;20412;-68
2021/08/04 09:59:20;;;;;;;1.45;1.35;;;;;;;18.14;76.25;99834.94;10490041;28;20056;-69
2021/08/04 10:04:22;;;;;;;3.53;1.38;;;;;;;18.55;78.57;99828.66;10491093;28;20052;-70
2021/08/04 10:09:23;;;;;;;2.38;1.00;;;;;;;19.16;69.46;99824.44;10491119;28;20048;-71
2021/08/04 10:14:26;;;;;;;0.90;0.70;;;;;;;20.46;68.47;99828.28;10490724;28;20113;-70
2021/08/04 10:19:30;;;;;;;2.00;1.10;;;;;;;20.80;68.41;99829.22;10491073;28;20106;-70
2021/08/04 10:24:34;;;;;;;2.05;1.10;;;;;;;20.69;67.26;99831.03;10490503;28;20462;-71
2021/08/04 10:29:36;;;;;;;1.27;1.17;;;;;;;20.81;69.87;99822.94;10472246;28;20044;-70
2021/08/04 10:34:38;;;;;;;1.00;1.00;;;;;;;21.33;66.48;99828.69;10490611;28;20052;-71
2021/08/04 10:39:39;;;;;;;0.95;0.90;;;;;;;20.99;65.01;99822.47;10473118;28;20524;-71
2021/08/04 10:44:42;;;;;;;1.30;1.20;;;;;;;20.50;67.56;99827.09;10488878;28;20444;-71
2021/08/04 10:49:44;;;;;;;1.33;0.90;;;;;;;20.47;68.84;99829.97;10471196;28;20068;-71
2021/08/04 10:55:05;;;;;;;4.40;1.58;;;;;;;20.29;70.68;99832.22;10444500;28;20057;-71
2021/08/04 11:00:24;;;;;;;2.47;1.10;;;;;;;20.05;69.08;99826.88;10470889;28;20421;-70
2021/08/04 11:06:03;;;;;;;1.13;1.00;;;;;;;19.76;69.18;99823.69;10463407;28;20036;-70
2021/08/04 11:11:54;;;;;;;4.18;2.13;;;;;;;19.38;74.17;99821.94;10485043;28;20032;-71
2021/08/04 11:17:00;;;;;;;3.20;2.85;;;;;;;19.39;75.37;99822.84;10431157;28;20053;-72
2021/08/04 11:22:19;;;;;;;1.70;1.60;;;;;;;20.42;73.67;99816.13;10477725;28;20144;-71
2021/08/04 11:27:22;;;;;;;2.53;1.63;;;;;;;21.89;69.39;99804.50;10497230;28;20105;-72
2021/08/04 11:32:29;;;;;;;1.98;1.30;;;;;;;22.30;63.74;99794.88;10496661;28;20097;-72
2021/08/04 11:37:40;;;;;;;2.10;1.48;;;;;;;22.25;62.98;99799.78;10496603;28;20053;-72
2021/08/04 11:42:42;;;;;;;0.85;0.80;;;;;;;21.83;61.43;99800.53;10478661;28;20040;-71
2021/08/04 11:47:49;;;;;;;1.83;1.10;;;;;;;21.82;62.93;99796.13;10496022;28;20052;-71
2021/08/04 11:52:51;;;;;;;1.13;0.77;;;;;;;21.48;63.54;99795.38;10495861;28;20528;-71
2021/08/04 11:57:56;;;;;;;1.30;1.20;;;;;;;21.35;66.36;99802.69;10495566;28;20358;-71
2021/08/04 12:02:58;;;;;;;0.80;0.73;;;;;;;21.58;63.65;99801.66;10495921;28;20044;-72
2021/08/04 12:08:00;;;;;;;0.77;0.60;;;;;;;21.86;59.58;99799.41;10460365;28;20430;-71
2021/08/04 12:13:04;;;;;;;0.65;0.65;;;;;;;22.14;60.59;99800.69;10495148;28;20071;-71
2021/08/04 12:18:06;;;;;;;0.90;0.80;;;;;;;22.33;56.92;99792.81;10495001;28;20102;-71
2021/08/04 12:23:12;;;;;;;0.70;0.50;;;;;;;22.19;55.42;99801.16;10494142;28;20048;-71
2021/08/04 12:28:14;;;;;;;1.35;0.70;;;;;;;22.11;56.80;99796.41;10476157;28;20040;-71
2021/08/04 12:33:19;;;;;;;0.70;0.50;;;;;;;22.12;56.57;99794.59;10493475;28;20124;-70
2021/08/04 12:38:22;;;;;;;0.95;0.60;;;;;;;22.17;56.53;99787.03;10494138;28;20071;-70
2021/08/04 12:43:32;;;;;;;2.17;0.82;;;;;;;22.09;58.93;99781.44;10494082;28;20115;-71
2021/08/04 12:48:40;;;;;;;0.90;0.65;;;;;;;21.73;57.38;99780.00;10494379;28;20044;-71
2021/08/04 12:53:43;;;;;;;1.02;0.77;;;;;;;22.80;55.56;99770.94;10475498;28;20405;-71
2021/08/04 12:58:54;;;;;;;0.75;0.70;;;;;;;22.89;54.79;99762.13;10492987;28;20109;-71
2021/08/04 13:03:56;;;;;;;2.90;0.68;;;;;;;22.74;55.44;99756.25;10492787;28;20064;-71
2021/08/04 13:09:03;;;;;;;1.00;0.90;;;;;;;23.28;54.67;99740.84;10493510;28;20359;-71
2021/08/04 13:14:06;;;;;;;0.68;0.68;;;;;;;23.19;55.18;99738.97;10492663;28;20395;-70
2021/08/04 13:19:23;;;;;;;0.60;0.60;;;;;;;24.13;53.36;99730.38;10474485;28;20049;-71
2021/08/04 13:24:30;;;;;;;0.85;0.50;;;;;;;24.38;52.59;99728.09;10491970;28;20047;-71
2021/08/04 13:29:33;;;;;;;0.52;0.52;;;;;;;24.05;49.04;99724.03;10492666;28;20462;-72
2021/08/04 13:34:35;;;;;;;0.70;0.52;;;;;;;23.66;52.27;99724.84;10474549;28;20150;-71
2021/08/04 13:39:36;;;;;;;0.52;0.50;;;;;;;23.35;50.68;99725.91;10491043;28;20052;-71
2021/08/04 13:44:38;;;;;;;0.50;0.50;;;;;;;23.02;52.98;99730.63;10491281;28;20055;-71
2021/08/04 13:49:40;;;;;;;0.50;0.50;;;;;;;22.54;54.13;99735.72;10491616;28;20125;-71
2021/08/04 13:54:41;;;;;;;0.50;0.50;;;;;;;22.66;54.78;99729.28;10491995;28;20412;-71
2021/08/04 13:59:43;;;;;;;0.50;0.50;;;;;;;22.88;53.35;99737.13;10491495;28;20111;-71
2021/08/04 14:04:44;;;;;;;1.00;0.40;;;;;;;23.14;52.81;99713.44;10491312;28;20040;-69
2021/08/04 14:09:48;;;;;;;0.55;0.50;;;;;;;23.20;52.44;99724.56;10490943;28;20404;-70
2021/08/04 14:14:50;;;;;;;0.45;0.45;;;;;;;23.35;50.38;99717.84;10490192;28;20363;-69
2021/08/04 14:19:52;;;;;;;0.68;0.60;;;;;;;23.23;50.44;99727.84;10490527;28;20101;-69
2021/08/04 14:24:54;;;;;;;0.60;0.60;;;;;;;22.99;50.04;99730.03;10490519;28;20110;-69
2021/08/04 14:29:56;;;;;;;0.70;0.52;;;;;;;22.86;52.36;99736.44;10492081;28;20058;-70
2021/08/04 14:34:57;;;;;;;0.82;0.50;;;;;;;23.00;51.08;99727.22;10491645;28;20110;-69
2021/08/04 14:39:59;;;;;;;0.93;0.57;;;;;;;22.96;49.49;99723.09;10471827;28;20078;-69
2021/08/04 14:45:03;;;;;;;1.27;0.40;;;;;;;22.56;51.84;99729.22;10490080;28;20041;-69
2021/08/04 14:50:05;;;;;;;0.98;0.65;;;;;;;22.91;52.87;99733.38;10491895;28;20044;-69
2021/08/04 14:55:07;;;;;;;0.50;0.50;;;;;;;22.59;51.05;99726.28;10497910;28;20106;-71
2021/08/04 15:00:10;;;;;;;0.50;0.50;;;;;;;22.46;52.49;99719.47;10510490;22;20048;-71
2021/08/04 15:05:11;;;;;;;1.08;0.50;;;;;;;22.66;52.88;99719.41;10481081;28;20163;-71
2021/08/04 15:10:13;;;;;;;1.05;0.60;;;;;;;22.89;51.07;99712.09;10498035;28;20044;-70
2021/08/04 15:15:15;;;;;;;0.75;0.60;;;;;;;23.20;49.77;99706.69;10498488;28;20397;-70
2021/08/04 15:20:16;;;;;;;0.93;0.70;;;;;;;22.86;52.54;99715.00;10480420;28;20052;-71
2021/08/04 15:25:18;;;;;;;1.08;0.65;;;;;;;22.48;53.23;99715.66;10499539;28;20470;-71
2021/08/04 15:30:19;;;;;;;0.50;0.50;;;;;;;22.41;53.39;99710.00;10496707;28;20059;-70
2021/08/04 15:35:22;;;;;;;2.28;0.70;;;;;;;22.17;54.30;99706.72;10496326;28;20128;-71
2021/08/04 15:40:23;;;;;;;1.95;0.75;;;;;;;22.19;54.06;99698.56;10479844;28;20048;-70
2021/08/04 15:45:25;;;;;;;0.52;0.52;;;;;;;22.27;52.47;99691.59;10496221;28;20048;-71
2021/08/04 15:50:27;;;;;;;0.50;0.45;;;;;;;22.88;50.91;99696.09;10498230;28;20036;-70
2021/08/04 15:55:29;;;;;;;0.50;0.50;;;;;;;23.37;49.11;99689.06;10496403;28;20154;-70
2021/08/04 16:00:31;;;;;;;0.68;0.57;;;;;;;23.97;47.50;99687.13;10493479;28;20148;-71
2021/08/04 16:05:32;;;;;;;0.75;0.70;;;;;;;24.07;47.94;99679.91;10491138;28;20045;-71
2021/08/04 16:10:34;;;;;;;0.73;0.60;;;;;;;23.27;49.02;99669.44;10492763;28;20041;-72
2021/08/04 16:15:36;;;;;;;1.77;0.60;;;;;;;23.44;49.44;99671.44;10493123;28;20041;-73
2021/08/04 16:20:38;;;;;;;2.80;0.70;;;;;;;23.11;50.13;99670.81;10477997;28;20056;-71
2021/08/04 16:25:39;;;;;;;1.95;0.85;;;;;;;22.69;50.53;99669.22;10478398;28;20470;-72
2021/08/04 16:30:41;;;;;;;2.05;0.73;;;;;;;22.75;50.07;99668.69;10479981;28;20393;-71
2021/08/04 16:35:43;;;;;;;2.88;0.55;;;;;;;22.61;50.24;99661.84;10476149;28;20048;-72
2021/08/04 16:40:44;;;;;;;0.60;0.60;;;;;;;22.35;51.55;99674.84;10495791;28;20048;-72
2021/08/04 16:45:46;;;;;;;0.82;0.60;;;;;;;22.33;53.88;99661.59;10459750;28;20057;-71
2021/08/04 16:50:48;;;;;;;0.80;0.80;;;;;;;22.12;52.99;99661.59;10473114;28;20119;-71
2021/08/04 16:55:49;;;;;;;2.80;0.88;;;;;;;22.38;52.70;99658.53;10489596;28;20033;-70
2021/08/04 17:00:52;;;;;;;1.33;0.60;;;;;;;22.57;52.73;99663.09;10434591;28;20129;-72
2021/08/04 17:05:53;;;;;;;1.48;0.73;;;;;;;22.40;53.09;99677.97;10470345;28;20153;-71
2021/08/04 17:10:55;;;;;;;0.98;0.70;;;;;;;22.43;54.01;99675.03;10493798;28;20067;-71
2021/08/04 17:15:57;;;;;;;0.98;0.90;;;;;;;22.21;55.08;99672.50;10477690;28;20485;-73
2021/08/04 17:21:00;;;;;;;0.52;0.52;;;;;;;22.12;54.57;99669.63;10493366;28;20102;-71
2021/08/04 17:26:02;;;;;;;1.30;0.82;;;;;;;21.85;56.03;99669.28;10493000;28;20054;-70
2021/08/04 17:31:03;;;;;;;1.95;0.60;;;;;;;21.85;54.99;99667.44;10474613;28;20055;-72
2021/08/04 17:36:05;;;;;;;1.45;0.50;;;;;;;21.76;54.29;99665.56;10494864;28;20036;-70
2021/08/04 17:41:07;;;;;;;0.57;0.57;;;;;;;21.63;54.26;99664.88;10493375;28;20455;-70
2021/08/04 17:46:10;;;;;;;0.65;0.60;;;;;;;21.40;53.16;99672.16;10492259;28;20055;-70
2021/08/04 17:51:13;;;;;;;3.15;0.50;;;;;;;21.00;55.91;99669.19;10474235;28;20117;-70
2021/08/04 17:56:15;;;;;;;0.60;0.60;;;;;;;21.05;54.54;99678.50;10481972;28;20148;-70
2021/08/04 18:01:17;;;;;;;0.77;0.65;;;;;;;20.83;56.12;99676.72;10492592;28;20135;-70
2021/08/04 18:06:19;;;;;;;0.93;0.70;;;;;;;20.70;55.88;99676.00;10472970;28;20558;-69
2021/08/04 18:11:20;;;;;;;0.50;0.47;;;;;;;20.57;56.63;99675.25;10473224;28;20331;-70
2021/08/04 18:16:22;;;;;;;1.73;0.70;;;;;;;20.46;58.20;99678.75;10492068;28;20044;-71
2021/08/04 18:21:24;;;;;;;0.70;0.70;;;;;;;20.34;59.36;99677.03;10492340;28;20060;-71
2021/08/04 18:26:28;;;;;;;0.80;0.77;;;;;;;20.08;60.03;99679.91;10497223;28;20040;-70
2021/08/04 18:31:29;;;;;;;0.95;0.93;;;;;;;19.95;61.01;99673.81;10481287;28;20516;-71
2021/08/04 18:36:31;;;;;;;1.83;0.85;;;;;;;19.79;61.83;99678.59;10464252;28;20056;-70
2021/08/04 18:41:33;;;;;;;1.25;1.00;;;;;;;19.75;61.07;99679.81;10481281;28;20496;-70
2021/08/04 18:46:35;;;;;;;1.02;0.90;;;;;;;19.75;61.59;99678.00;10499478;28;20080;-70
2021/08/04 18:51:37;;;;;;;1.00;0.90;;;;;;;19.70;62.04;99673.97;10475593;28;20115;-71
2021/08/04 18:56:40;;;;;;;0.90;0.80;;;;;;;19.61;63.09;99684.38;10485028;28;20048;-71
2021/08/04 19:01:45;;;;;;;1.20;1.10;;;;;;;19.40;64.41;99681.44;10453379;28;20044;-71
2021/08/04 19:06:47;;;;;;;2.17;1.17;;;;;;;19.39;64.27;99676.25;10463851;28;20363;-71
2021/08/04 19:11:48;;;;;;;2.25;0.98;;;;;;;19.32;64.79;99681.16;10458173;28;20126;-71
2021/08/04 19:16:50;;;;;;;2.08;0.85;;;;;;;19.35;64.93;99696.94;10457111;28;20103;-70
2021/08/04 19:21:52;;;;;;;1.00;0.88;;;;;;;19.12;66.04;99689.75;10457014;28;20060;-70
2021/08/04 19:26:53;;;;;;;1.90;1.20;;;;;;;19.20;65.81;99694.53;10438261;28;20085;-70
2021/08/04 19:31:55;;;;;;;2.63;1.30;;;;;;;19.00;66.08;99691.50;10457233;28;20041;-70
2021/08/04 19:36:56;;;;;;;1.55;1.20;;;;;;;18.82;69.11;99693.66;10454934;28;20049;-70
2021/08/04 19:41:58;;;;;;;2.10;1.27;;;;;;;18.64;69.95;99695.78;10455054;28;20126;-71
2021/08/04 19:46:59;;;;;;;2.20;1.40;;;;;;;18.50;68.51;99679.91;10454588;28;20041;-71
2021/08/04 19:52:01;;;;;;;1.65;1.50;;;;;;;18.77;66.97;99677.19;10456877;28;20087;-71
2021/08/04 19:57:03;;;;;;;1.70;1.25;;;;;;;19.02;67.31;99681.56;10439479;28;20049;-71
2021/08/04 20:02:06;;;;;;;2.40;1.45;;;;;;;18.70;69.20;99685.69;10436470;28;20048;-70
2021/08/04 20:07:08;;;;;;;1.88;1.50;;;;;;;18.51;70.76;99680.78;10454465;28;20455;-70
2021/08/04 20:12:10;;;;;;;1.90;1.40;;;;;;;18.40;70.54;99687.69;10436093;28;20053;-71
2021/08/04 20:17:14;;;;;;;2.58;1.77;;;;;;;18.41;70.56;99691.22;10455976;28;20113;-70
2021/08/04 20:22:16;;;;;;;2.47;1.50;;;;;;;18.70;70.05;99685.69;10453934;28;20147;-71
2021/08/04 20:27:18;;;;;;;2.05;1.85;;;;;;;18.47;72.17;99682.81;10435572;28;20098;-71
2021/08/04 20:32:20;;;;;;;1.70;1.60;;;;;;;18.34;72.68;99687.28;10454180;28;20045;-71
2021/08/04 20:37:21;;;;;;;1.52;1.40;;;;;;;18.40;71.84;99687.69;10456828;28;20161;-70
2021/08/04 20:42:37;;;;;;;1.60;1.50;;;;;;;18.55;71.69;99687.56;10437643;28;20094;-71
2021/08/04 20:47:40;;;;;;;2.17;1.58;;;;;;;18.69;71.03;99692.84;10454723;28;20110;-70
2021/08/04 20:52:44;;;;;;;2.65;1.67;;;;;;;18.33;72.29;99689.09;10435891;28;20095;-70
2021/08/04 20:57:50;;;;;;;3.75;1.77;;;;;;;18.23;73.34;99692.47;10466324;22;20052;-74
2021/08/04 21:02:53;;;;;;;1.80;1.67;;;;;;;18.21;73.68;99683.78;10454758;28;20110;-72
2021/08/04 21:07:55;;;;;;;1.60;1.50;;;;;;;18.26;73.59;99682.50;10455775;28;20138;-72
2021/08/04 21:12:57;;;;;;;1.58;1.40;;;;;;;18.23;73.55;99684.50;10454573;28;20137;-72
2021/08/04 21:17:59;;;;;;;2.03;1.83;;;;;;;18.45;73.20;99683.88;10454572;28;20052;-72
2021/08/04 21:23:00;;;;;;;3.70;2.17;;;;;;;18.05;75.18;99687.47;10453787;28;20121;-72
2021/08/04 21:28:05;;;;;;;2.85;2.30;;;;;;;17.89;75.18;99678.84;10436009;28;20114;-73
2021/08/04 21:33:06;;;;;;;2.03;1.80;;;;;;;18.04;74.77;99688.44;10435932;28;20045;-71
2021/08/04 21:38:08;;;;;;;2.28;1.85;;;;;;;17.98;75.21;99680.88;10454232;28;20045;-73
2021/08/04 21:43:09;;;;;;;2.05;1.85;;;;;;;17.71;76.91;99688.00;10453850;28;20136;-72
2021/08/04 21:48:13;;;;;;;2.30;1.60;;;;;;;17.76;76.47;99675.31;10454204;28;20513;-73
2021/08/04 21:53:15;;;;;;;2.28;2.08;;;;;;;17.99;75.75;99685.22;10435884;28;20112;-72
2021/08/04 21:58:17;;;;;;;2.22;2.03;;;;;;;17.78;76.37;99689.34;10452966;28;20075;-72
2021/08/04 22:03:18;;;;;;;1.67;1.55;;;;;;;17.46;78.04;99681.66;10452363;28;20486;-72
2021/08/04 22:08:22;;;;;;;1.80;1.70;;;;;;;17.47;77.86;99680.72;10435657;28;20072;-71
2021/08/04 22:13:24;;;;;;;1.88;1.70;;;;;;;17.62;77.50;99682.38;10453146;28;20049;-73
2021/08/04 22:18:25;;;;;;;2.60;1.92;;;;;;;17.29;79.34;99681.91;10452597;28;20107;-72
2021/08/04 22:23:27;;;;;;;2.05;1.83;;;;;;;17.18;79.70;99684.41;10451926;28;20041;-72
2021/08/04 22:28:28;;;;;;;2.83;1.70;;;;;;;17.70;77.76;99673.00;10434032;28;20099;-73
2021/08/04 22:33:30;;;;;;;2.20;1.90;;;;;;;17.21;79.51;99668.28;10433681;28;20509;-72
2021/08/04 22:38:31;;;;;;;2.45;1.70;;;;;;;17.08;80.37;99668.22;10451969;28;20049;-73
2021/08/04 22:43:33;;;;;;;1.95;1.70;;;;;;;17.32;79.25;99648.03;10433992;28;20045;-72
2021/08/04 22:48:35;;;;;;;2.03;1.83;;;;;;;17.29;78.96;99653.53;10433864;28;20056;-72
2021/08/04 22:53:36;;;;;;;1.98;1.70;;;;;;;17.08;79.53;99653.13;10451861;28;20110;-71
2021/08/04 22:58:38;;;;;;;3.22;1.77;;;;;;;16.86;81.39;99658.97;10433859;28;20114;-72
2021/08/04 23:03:39;;;;;;;2.42;2.00;;;;;;;16.77;82.27;99658.69;10433841;28;20041;-72
2021/08/04 23:08:41;;;;;;;2.00;1.77;;;;;;;16.83;81.94;99645.06;10433856;28;20049;-72
2021/08/04 23:13:42;;;;;;;2.00;1.80;;;;;;;16.81;82.02;99639.81;10456564;28;20041;-73
2021/08/04 23:18:44;;;;;;;2.85;1.98;;;;;;;17.06;81.38;99643.56;10441884;28;20052;-73
2021/08/04 23:23:45;;;;;;;2.42;1.80;;;;;;;17.07;81.26;99642.63;10458836;28;20053;-72
2021/08/04 23:28:47;;;;;;;2.15;2.00;;;;;;;16.98;81.62;99643.22;10459187;28;20045;-73